Terminal Aerodrome Forecast
Issued by NWS Sterling, VA

Current Version | Previous Version | Graphics & Text | Print | Product List | Glossary Off
Versions: 1 2 3 4 5 6 7 8 9 10 11 12 13 14 15 16 17 18 19 20 21 22 23 24 25 26 27 28 29 30 31 32

000
FTUS41 KLWX 060117 AAA
TAFIAD
TAF AMD
KIAD 060117Z 0601/0706 33011KT 6SM -SN SCT015 OVC080
     FM060300 33010KT P6SM BKN080
     FM060500 34005KT P6SM SCT050
     FM061400 34008KT P6SM FEW250
     FM070000 VRB03KT P6SM SCT100=

USA.gov is the U.S. government's official web portal to all federal, state and local government web resources and services.